Time;durP1;ratioP1;P1;durP2;ratioP2;P2;SDS_P1;SDS_P2;PMS_P1;PMS_P2;Temp;Humidity;BMP_temperature;BMP_pressure;BME280_temperature;BME280_humidity;BME280_pressure;Samples;Min_cycle;Max_cycle;Signal;HPM_P1;HPM_P2
2021/07/15 00:01:07;;;;;;;;;;;23.20;50.30;;;;;;1582987;74;718;-69
2021/07/15 00:03:10;;;;;;;;;;;23.10;50.30;;;;;;1578535;74;1142;-69
2021/07/15 00:05:13;;;;;;;;;;;23.10;50.30;;;;;;1588682;74;1915;-69
2021/07/15 00:07:15;;;;;;;;;;;23.10;50.30;;;;;;1577147;74;737;-69
2021/07/15 00:09:17;;;;;;;;;;;23.10;50.20;;;;;;1576264;74;800;-69
2021/07/15 00:11:19;;;;;;;;;;;23.10;50.20;;;;;;1585028;74;738;-68
2021/07/15 00:13:21;;;;;;;;;;;23.10;50.20;;;;;;1580442;74;648;-69
2021/07/15 00:15:23;;;;;;;;;;;23.10;50.20;;;;;;1588886;74;797;-70
2021/07/15 00:17:25;;;;;;;;;;;23.10;50.20;;;;;;1574326;74;758;-69
2021/07/15 00:19:27;;;;;;;;;;;23.10;50.20;;;;;;1579769;74;794;-68
2021/07/15 00:21:29;;;;;;;;;;;23.10;50.20;;;;;;1580131;74;1178;-69
2021/07/15 00:23:31;;;;;;;;;;;23.10;50.20;;;;;;1580421;74;790;-69
2021/07/15 00:25:33;;;;;;;;;;;23.20;50.30;;;;;;1580496;74;1945;-69
2021/07/15 00:27:35;;;;;;;;;;;23.10;50.30;;;;;;1582886;74;687;-69
2021/07/15 00:29:37;;;;;;;;;;;23.20;50.20;;;;;;1573792;74;684;-69
2021/07/15 00:31:39;;;;;;;;;;;23.10;50.30;;;;;;1574389;74;1139;-70
2021/07/15 00:33:41;;;;;;;;;;;23.10;50.20;;;;;;1572901;74;720;-69
2021/07/15 00:35:43;;;;;;;;;;;23.10;50.30;;;;;;1565532;74;824;-69
2021/07/15 00:37:44;;;;;;;;;;;23.10;50.20;;;;;;1576677;74;780;-69
2021/07/15 00:39:46;;;;;;;;;;;23.10;50.20;;;;;;1584039;74;715;-69
2021/07/15 00:41:48;;;;;;;;;;;23.10;50.20;;;;;;1580153;74;1129;-68
2021/07/15 00:43:50;;;;;;;;;;;23.10;50.20;;;;;;1590170;74;793;-69
2021/07/15 00:45:52;;;;;;;;;;;23.10;50.30;;;;;;1573575;74;1929;-69
2021/07/15 00:47:54;;;;;;;;;;;23.10;50.30;;;;;;1577155;74;720;-70
2021/07/15 00:49:56;;;;;;;;;;;23.10;50.30;;;;;;1583124;73;789;-70
2021/07/15 00:51:58;;;;;;;;;;;23.10;50.20;;;;;;1582690;74;1159;-69
2021/07/15 00:54:00;;;;;;;;;;;23.10;50.20;;;;;;1579668;74;766;-69
2021/07/15 00:56:02;;;;;;;;;;;23.10;50.30;;;;;;1557444;74;755;-69
2021/07/15 00:58:07;;;;;;;;;;;23.10;50.30;;;;;;1581210;73;780;-68
2021/07/15 01:00:09;;;;;;;;;;;23.10;50.30;;;;;;1590535;74;782;-70
2021/07/15 01:02:12;;;;;;;;;;;23.10;50.30;;;;;;1575407;74;1063;-69
2021/07/15 01:04:14;;;;;;;;;;;23.10;50.30;;;;;;1580403;75;699;-69
2021/07/15 01:06:17;;;;;;;;;;;23.10;50.30;;;;;;1573957;74;1934;-69
2021/07/15 01:08:19;;;;;;;;;;;23.10;50.20;;;;;;1584089;73;719;-69
2021/07/15 01:10:21;;;;;;;;;;;23.10;50.30;;;;;;1580713;74;780;-69
2021/07/15 01:12:25;;;;;;;;;;;23.10;50.30;;;;;;1605222;71;2035;-73
2021/07/15 01:14:30;;;;;;;;;;;23.10;50.30;;;;;;1664720;71;761;-70
2021/07/15 01:16:36;;;;;;;;;;;23.10;50.30;;;;;;1653476;71;765;-73
2021/07/15 01:18:40;;;;;;;;;;;23.10;50.20;;;;;;1661235;71;690;-72
2021/07/15 01:20:49;;;;;;;;;;;23.10;50.30;;;;;;1659639;70;1597;-73
2021/07/15 01:23:08;;;;;;;;;;;23.10;50.30;;;;;;1666194;70;1247;-72
2021/07/15 01:25:11;;;;;;;;;;;23.10;50.30;;;;;;1646289;71;1913;-71
2021/07/15 01:27:21;;;;;;;;;;;23.10;50.40;;;;;;1658731;71;950;-72
2021/07/15 01:29:33;;;;;;;;;;;23.10;50.40;;;;;;1624022;71;1204;-73
2021/07/15 01:31:35;;;;;;;;;;;23.10;50.40;;;;;;1654207;70;1144;-72
2021/07/15 01:33:37;;;;;;;;;;;23.10;50.40;;;;;;1654283;70;1045;-73
2021/07/15 01:35:43;;;;;;;;;;;23.10;50.30;;;;;;1666358;70;713;-73
2021/07/15 01:37:46;;;;;;;;;;;23.10;50.30;;;;;;1664997;70;688;-72
2021/07/15 01:39:49;;;;;;;;;;;23.10;50.40;;;;;;1659607;70;797;-73
2021/07/15 01:41:51;;;;;;;;;;;23.10;50.30;;;;;;1653669;71;1103;-74
2021/07/15 01:43:55;;;;;;;;;;;23.10;50.30;;;;;;1665528;71;733;-74
2021/07/15 01:45:57;;;;;;;;;;;23.10;50.30;;;;;;1653680;70;1936;-72
2021/07/15 01:47:58;;;;;;;;;;;23.10;50.30;;;;;;1660655;71;711;-72
2021/07/15 01:50:00;;;;;;;;;;;23.10;50.30;;;;;;1646059;71;694;-72
2021/07/15 01:52:02;;;;;;;;;;;23.10;50.40;;;;;;1645992;71;1149;-73
2021/07/15 01:54:04;;;;;;;;;;;23.10;50.30;;;;;;1659667;70;628;-73
2021/07/15 01:56:07;;;;;;;;;;;23.10;50.30;;;;;;1666809;70;773;-73
2021/07/15 01:58:09;;;;;;;;;;;23.10;50.30;;;;;;1659341;71;730;-72
2021/07/15 02:00:11;;;;;;;;;;;23.10;50.30;;;;;;1658535;70;719;-73
2021/07/15 02:02:13;;;;;;;;;;;23.10;50.30;;;;;;1664258;70;1124;-72
2021/07/15 02:04:15;;;;;;;;;;;23.10;50.30;;;;;;1663790;71;745;-74
2021/07/15 02:06:17;;;;;;;;;;;23.10;50.30;;;;;;1668991;71;1935;-74
2021/07/15 02:08:19;;;;;;;;;;;23.10;50.30;;;;;;1660506;71;788;-72
2021/07/15 02:10:22;;;;;;;;;;;23.10;50.30;;;;;;1640082;71;698;-72
2021/07/15 02:12:24;;;;;;;;;;;23.10;50.30;;;;;;1659462;70;1103;-73
2021/07/15 02:14:25;;;;;;;;;;;23.10;50.30;;;;;;1663262;71;858;-72
2021/07/15 02:16:27;;;;;;;;;;;23.10;50.30;;;;;;1655548;71;709;-73
2021/07/15 02:18:29;;;;;;;;;;;23.10;50.30;;;;;;1648925;71;701;-73
2021/07/15 02:20:31;;;;;;;;;;;23.10;50.30;;;;;;1666202;71;755;-70
2021/07/15 02:22:33;;;;;;;;;;;23.10;50.30;;;;;;1663614;70;1178;-72
2021/07/15 02:24:35;;;;;;;;;;;23.10;50.30;;;;;;1668118;71;642;-73
2021/07/15 02:26:37;;;;;;;;;;;23.10;50.30;;;;;;1659509;71;1945;-73
2021/07/15 02:28:39;;;;;;;;;;;23.10;50.20;;;;;;1657957;70;686;-73
2021/07/15 02:30:41;;;;;;;;;;;23.10;50.20;;;;;;1663710;70;708;-73
2021/07/15 02:32:51;;;;;;;;;;;23.00;50.10;;;;;;1661868;70;1156;-72
2021/07/15 02:34:58;;;;;;;;;;;23.10;50.30;;;;;;1667835;71;705;-73
2021/07/15 02:37:01;;;;;;;;;;;23.10;50.30;;;;;;1661679;70;1045;-73
2021/07/15 02:39:03;;;;;;;;;;;23.10;50.30;;;;;;1659817;71;598;-74
2021/07/15 02:41:05;;;;;;;;;;;23.00;50.20;;;;;;1661373;71;694;-73
2021/07/15 02:43:07;;;;;;;;;;;23.10;50.30;;;;;;1662087;70;1187;-71
2021/07/15 02:45:09;;;;;;;;;;;23.10;50.30;;;;;;1661211;71;708;-71
2021/07/15 02:47:10;;;;;;;;;;;23.10;50.30;;;;;;1656695;71;1942;-72
2021/07/15 02:49:13;;;;;;;;;;;23.10;50.30;;;;;;1664844;71;737;-72
2021/07/15 02:51:14;;;;;;;;;;;23.10;50.30;;;;;;1664019;71;722;-71
2021/07/15 02:53:16;;;;;;;;;;;23.00;50.20;;;;;;1644256;71;1110;-73
2021/07/15 02:55:18;;;;;;;;;;;23.10;50.30;;;;;;1615812;73;1128;-72
2021/07/15 02:57:37;;;;;;;;;;;23.10;50.20;;;;;;1653900;71;664;-74
2021/07/15 02:59:43;;;;;;;;;;;23.10;50.20;;;;;;1666144;70;957;-72
2021/07/15 03:01:53;;;;;;;;;;;23.10;50.30;;;;;;1653330;71;1177;-70
2021/07/15 03:04:05;;;;;;;;;;;23.10;50.30;;;;;;1662746;71;1203;-72
2021/07/15 03:06:09;;;;;;;;;;;23.10;50.30;;;;;;1651726;71;1933;-73
2021/07/15 03:08:11;;;;;;;;;;;23.10;50.30;;;;;;1661626;71;693;-74
2021/07/15 03:10:13;;;;;;;;;;;23.10;50.20;;;;;;1667025;71;795;-73
2021/07/15 03:12:17;;;;;;;;;;;23.10;50.30;;;;;;1653681;71;1140;-73
2021/07/15 03:14:19;;;;;;;;;;;23.10;50.30;;;;;;1657107;71;801;-73
2021/07/15 03:16:21;;;;;;;;;;;23.10;50.20;;;;;;1636727;72;727;-74
2021/07/15 03:18:24;;;;;;;;;;;23.10;50.20;;;;;;1665074;71;778;-73
2021/07/15 03:20:28;;;;;;;;;;;23.10;50.30;;;;;;1661617;70;1200;-71
2021/07/15 03:22:30;;;;;;;;;;;23.10;50.20;;;;;;1665358;70;1167;-73
2021/07/15 03:24:32;;;;;;;;;;;23.10;50.20;;;;;;1651960;71;759;-73
2021/07/15 03:26:34;;;;;;;;;;;23.10;50.20;;;;;;1650936;70;1933;-73
2021/07/15 03:28:37;;;;;;;;;;;23.10;50.20;;;;;;1662946;70;713;-73
2021/07/15 03:30:39;;;;;;;;;;;23.10;50.20;;;;;;1662806;71;694;-73
2021/07/15 03:32:43;;;;;;;;;;;23.10;50.20;;;;;;1662040;70;1221;-74
2021/07/15 03:34:44;;;;;;;;;;;23.00;50.00;;;;;;1662689;71;655;-73
2021/07/15 03:36:50;;;;;;;;;;;23.10;50.20;;;;;;1663158;70;701;-74
2021/07/15 03:38:50;;;;;;;;;;;23.10;50.20;;;;;;1661744;70;1636;-73
2021/07/15 03:40:52;;;;;;;;;;;23.10;50.20;;;;;;1660994;71;689;-72
2021/07/15 03:42:54;;;;;;;;;;;23.10;50.20;;;;;;1645416;70;1117;-73
2021/07/15 03:44:56;;;;;;;;;;;23.10;50.20;;;;;;1658058;71;776;-73
2021/07/15 03:46:57;;;;;;;;;;;23.10;50.20;;;;;;1667606;71;1935;-73
2021/07/15 03:48:59;;;;;;;;;;;23.10;50.20;;;;;;1662736;71;740;-73
2021/07/15 03:51:02;;;;;;;;;;;23.10;50.20;;;;;;1661845;70;1103;-74
2021/07/15 03:53:05;;;;;;;;;;;23.10;50.20;;;;;;1655488;70;1162;-73
2021/07/15 03:55:07;;;;;;;;;;;23.10;50.10;;;;;;1661883;71;722;-73
2021/07/15 03:57:12;;;;;;;;;;;23.10;50.20;;;;;;1661368;71;674;-73
2021/07/15 03:59:14;;;;;;;;;;;23.00;50.10;;;;;;1669812;71;794;-72
2021/07/15 04:01:16;;;;;;;;;;;23.10;50.20;;;;;;1654827;71;775;-73
2021/07/15 04:03:19;;;;;;;;;;;23.10;50.20;;;;;;1653982;70;1182;-74
2021/07/15 04:05:21;;;;;;;;;;;23.10;50.20;;;;;;1665837;70;712;-73
2021/07/15 04:07:24;;;;;;;;;;;23.10;50.20;;;;;;1661597;71;1938;-74
2021/07/15 04:09:26;;;;;;;;;;;23.00;50.00;;;;;;1670837;70;715;-73
2021/07/15 04:11:28;;;;;;;;;;;23.10;50.20;;;;;;1663015;71;675;-73
2021/07/15 04:13:30;;;;;;;;;;;23.10;50.20;;;;;;1653139;71;1132;-73
2021/07/15 04:15:36;;;;;;;;;;;23.10;50.20;;;;;;1653045;71;767;-73
2021/07/15 04:17:50;;;;;;;;;;;23.00;50.10;;;;;;1662141;70;1135;-73
2021/07/15 04:19:52;;;;;;;;;;;23.00;50.10;;;;;;1662975;70;697;-73
2021/07/15 04:21:54;;;;;;;;;;;23.10;50.20;;;;;;1649535;70;1187;-73
2021/07/15 04:23:56;;;;;;;;;;;23.10;50.20;;;;;;1662992;71;714;-73
2021/07/15 04:25:58;;;;;;;;;;;23.10;50.20;;;;;;1663032;70;1924;-72
2021/07/15 04:28:00;;;;;;;;;;;23.10;50.20;;;;;;1656512;71;741;-73
2021/07/15 04:30:04;;;;;;;;;;;23.10;50.20;;;;;;1662952;70;738;-74
2021/07/15 04:32:16;;;;;;;;;;;23.10;50.20;;;;;;1656400;70;1174;-73
2021/07/15 04:34:18;;;;;;;;;;;23.10;50.20;;;;;;1661847;71;676;-73
2021/07/15 04:36:20;;;;;;;;;;;23.00;50.10;;;;;;1663050;71;708;-73
2021/07/15 04:38:22;;;;;;;;;;;23.10;50.20;;;;;;1662069;71;681;-73
2021/07/15 04:40:24;;;;;;;;;;;23.00;50.10;;;;;;1655045;71;706;-73
2021/07/15 04:42:26;;;;;;;;;;;23.10;50.20;;;;;;1666492;70;1146;-73
2021/07/15 04:44:32;;;;;;;;;;;23.00;50.10;;;;;;1662996;70;675;-73
2021/07/15 04:46:34;;;;;;;;;;;23.10;50.20;;;;;;1662939;71;1919;-73
2021/07/15 04:48:36;;;;;;;;;;;23.10;50.20;;;;;;1655034;71;783;-72
2021/07/15 04:50:38;;;;;;;;;;;23.00;50.10;;;;;;1649720;71;747;-73
2021/07/15 04:52:40;;;;;;;;;;;23.10;50.20;;;;;;1668556;70;1198;-73
2021/07/15 04:54:42;;;;;;;;;;;23.10;50.20;;;;;;1654965;71;739;-73
2021/07/15 04:56:44;;;;;;;;;;;23.00;50.10;;;;;;1663192;71;606;-74
2021/07/15 04:58:46;;;;;;;;;;;23.00;50.10;;;;;;1659037;71;721;-75
2021/07/15 05:00:48;;;;;;;;;;;23.00;50.10;;;;;;1665016;71;705;-74
2021/07/15 05:02:51;;;;;;;;;;;23.00;50.10;;;;;;1663691;70;1104;-73
2021/07/15 05:04:53;;;;;;;;;;;23.10;50.20;;;;;;1670263;70;961;-73
2021/07/15 05:06:56;;;;;;;;;;;23.00;50.10;;;;;;1658880;71;1919;-73
2021/07/15 05:08:58;;;;;;;;;;;23.00;50.10;;;;;;1665485;70;849;-72
2021/07/15 05:10:59;;;;;;;;;;;23.10;50.20;;;;;;1662999;71;710;-73
2021/07/15 05:13:01;;;;;;;;;;;23.00;50.00;;;;;;1664985;71;1103;-73
2021/07/15 05:15:04;;;;;;;;;;;23.00;50.10;;;;;;1652744;71;792;-71
2021/07/15 05:17:06;;;;;;;;;;;23.10;50.20;;;;;;1639093;71;569;-73
2021/07/15 05:19:08;;;;;;;;;;;23.00;50.10;;;;;;1658585;71;728;-72
2021/07/15 05:21:10;;;;;;;;;;;23.00;50.00;;;;;;1669972;71;648;-73
2021/07/15 05:23:11;;;;;;;;;;;23.00;50.10;;;;;;1662606;70;1110;-73
2021/07/15 05:25:14;;;;;;;;;;;23.00;50.00;;;;;;1663889;70;742;-72
2021/07/15 05:27:16;;;;;;;;;;;23.10;50.20;;;;;;1650152;71;1917;-73
2021/07/15 05:29:18;;;;;;;;;;;23.10;50.20;;;;;;1659895;71;952;-74
2021/07/15 05:31:21;;;;;;;;;;;23.00;50.00;;;;;;1662566;70;716;-71
2021/07/15 05:33:23;;;;;;;;;;;23.10;50.20;;;;;;1661495;70;1090;-73
2021/07/15 05:35:25;;;;;;;;;;;23.00;50.10;;;;;;1668349;71;645;-73
2021/07/15 05:37:26;;;;;;;;;;;23.00;50.10;;;;;;1658073;71;697;-73
2021/07/15 05:39:28;;;;;;;;;;;23.10;50.20;;;;;;1661549;71;702;-74
2021/07/15 05:41:30;;;;;;;;;;;23.10;50.20;;;;;;1661134;71;711;-72
2021/07/15 05:43:32;;;;;;;;;;;23.00;50.10;;;;;;1662185;70;1111;-73
2021/07/15 05:45:34;;;;;;;;;;;23.00;50.10;;;;;;1660783;71;711;-72
2021/07/15 05:47:36;;;;;;;;;;;23.00;50.10;;;;;;1655608;71;1929;-72
2021/07/15 05:49:38;;;;;;;;;;;23.00;50.10;;;;;;1662263;71;715;-72
2021/07/15 05:51:46;;;;;;;;;;;23.00;50.10;;;;;;1665200;71;714;-72
2021/07/15 05:53:43;;;;;;;;;;;23.00;50.10;;;;;;1662069;70;932;-74
2021/07/15 05:55:45;;;;;;;;;;;23.00;50.00;;;;;;1657042;71;811;-72
2021/07/15 05:57:47;;;;;;;;;;;23.00;50.10;;;;;;1661067;70;768;-72
2021/07/15 05:59:49;;;;;;;;;;;23.10;50.20;;;;;;1668992;71;712;-72
2021/07/15 06:01:51;;;;;;;;;;;23.10;50.20;;;;;;1661073;71;1090;-72
2021/07/15 06:03:53;;;;;;;;;;;23.00;50.10;;;;;;1660935;71;753;-72
2021/07/15 06:05:54;;;;;;;;;;;23.00;50.00;;;;;;1664722;71;670;-72
2021/07/15 06:07:57;;;;;;;;;;;23.10;50.20;;;;;;1661695;71;1928;-73
2021/07/15 06:09:59;;;;;;;;;;;23.00;50.10;;;;;;1666017;71;641;-73
2021/07/15 06:12:01;;;;;;;;;;;23.00;50.00;;;;;;1665202;71;1150;-68
2021/07/15 06:14:03;;;;;;;;;;;23.10;50.20;;;;;;1642427;71;771;-73
2021/07/15 06:16:05;;;;;;;;;;;23.00;50.00;;;;;;1658587;71;754;-74
2021/07/15 06:18:07;;;;;;;;;;;23.00;50.00;;;;;;1661822;70;717;-72
2021/07/15 06:20:12;;;;;;;;;;;23.00;50.10;;;;;;1661289;71;604;-74
2021/07/15 06:22:12;;;;;;;;;;;23.00;50.00;;;;;;1658733;71;1172;-73
2021/07/15 06:24:14;;;;;;;;;;;23.10;50.20;;;;;;1658593;71;708;-71
2021/07/15 06:26:16;;;;;;;;;;;23.00;50.00;;;;;;1665019;70;776;-73
2021/07/15 06:28:18;;;;;;;;;;;23.00;50.10;;;;;;1658396;71;1914;-73
2021/07/15 06:30:20;;;;;;;;;;;23.00;50.10;;;;;;1662437;71;710;-73
2021/07/15 06:32:22;;;;;;;;;;;23.10;50.20;;;;;;1655539;70;1139;-73
2021/07/15 06:34:24;;;;;;;;;;;23.00;50.10;;;;;;1663608;71;716;-74
2021/07/15 06:36:26;;;;;;;;;;;23.00;50.10;;;;;;1662994;71;759;-73
2021/07/15 06:38:29;;;;;;;;;;;23.00;50.10;;;;;;1662031;71;721;-75
2021/07/15 06:40:31;;;;;;;;;;;23.00;50.00;;;;;;1660928;71;908;-73
2021/07/15 06:42:33;;;;;;;;;;;23.10;50.20;;;;;;1665278;70;1147;-73
2021/07/15 06:44:35;;;;;;;;;;;23.00;50.10;;;;;;1663259;71;711;-72
2021/07/15 06:46:38;;;;;;;;;;;23.10;50.10;;;;;;1663608;71;721;-73
2021/07/15 06:48:40;;;;;;;;;;;23.00;50.10;;;;;;1662578;71;1892;-73
2021/07/15 06:50:42;;;;;;;;;;;23.00;50.10;;;;;;1649513;71;776;-73
2021/07/15 06:52:44;;;;;;;;;;;23.00;50.10;;;;;;1656421;70;1171;-73
2021/07/15 06:54:46;;;;;;;;;;;23.00;50.10;;;;;;1662022;71;713;-73
2021/07/15 06:56:48;;;;;;;;;;;23.00;50.10;;;;;;1650830;71;741;-73
2021/07/15 06:58:50;;;;;;;;;;;23.00;50.10;;;;;;1664962;71;717;-73
2021/07/15 07:00:52;;;;;;;;;;;23.10;50.20;;;;;;1657981;71;639;-72
2021/07/15 07:02:53;;;;;;;;;;;23.00;50.10;;;;;;1661243;71;1071;-73
2021/07/15 07:04:58;;;;;;;;;;;23.00;50.10;;;;;;1665207;71;779;-72
2021/07/15 07:06:59;;;;;;;;;;;23.00;50.10;;;;;;1661895;71;1927;-73
2021/07/15 07:09:01;;;;;;;;;;;23.00;50.10;;;;;;1656678;71;587;-73
2021/07/15 07:11:03;;;;;;;;;;;23.00;50.10;;;;;;1653848;71;725;-73
2021/07/15 07:13:04;;;;;;;;;;;23.10;50.20;;;;;;1661746;71;1101;-73
2021/07/15 07:15:08;;;;;;;;;;;23.00;50.20;;;;;;1639001;71;221794;-61
2021/07/15 07:17:10;;;;;;;;;;;23.10;50.30;;;;;;1617270;71;652;-61
2021/07/15 07:19:11;;;;;;;;;;;23.00;50.10;;;;;;1622108;72;679;-61
2021/07/15 07:21:13;;;;;;;;;;;23.00;50.10;;;;;;1629143;71;791;-61
2021/07/15 07:23:16;;;;;;;;;;;23.00;50.10;;;;;;1622836;71;1185;-61
2021/07/15 07:25:18;;;;;;;;;;;23.00;50.10;;;;;;1626242;72;716;-61
2021/07/15 07:27:20;;;;;;;;;;;23.00;50.10;;;;;;1617586;71;1936;-61
2021/07/15 07:29:22;;;;;;;;;;;23.00;50.10;;;;;;1636004;71;750;-61
2021/07/15 07:31:26;;;;;;;;;;;23.00;50.20;;;;;;1627842;71;1081;-61
2021/07/15 07:33:27;;;;;;;;;;;23.00;50.10;;;;;;1632020;72;770;-61
2021/07/15 07:35:29;;;;;;;;;;;23.00;50.10;;;;;;1648261;71;666;-61
2021/07/15 07:37:32;;;;;;;;;;;23.00;50.20;;;;;;1643336;71;708;-61
2021/07/15 07:39:34;;;;;;;;;;;23.10;50.20;;;;;;1631061;71;716;-61
2021/07/15 07:41:36;;;;;;;;;;;23.00;50.20;;;;;;1633097;72;1130;-61
2021/07/15 07:43:38;;;;;;;;;;;23.00;50.20;;;;;;1632007;71;784;-61
2021/07/15 07:45:40;;;;;;;;;;;23.00;50.10;;;;;;1628129;72;765;-61
2021/07/15 07:47:42;;;;;;;;;;;23.00;50.10;;;;;;1625139;72;1941;-61
2021/07/15 07:49:44;;;;;;;;;;;23.00;50.10;;;;;;1635571;72;703;-62
2021/07/15 07:51:46;;;;;;;;;;;23.10;50.20;;;;;;1617939;72;1135;-61
2021/07/15 07:53:47;;;;;;;;;;;23.00;50.10;;;;;;1615540;72;782;-61
2021/07/15 07:55:49;;;;;;;;;;;23.00;50.10;;;;;;1644496;71;606;-61
2021/07/15 07:57:51;;;;;;;;;;;23.00;50.10;;;;;;1632204;71;671;-61
2021/07/15 07:59:53;;;;;;;;;;;23.00;50.10;;;;;;1650331;71;783;-61
2021/07/15 08:01:55;;;;;;;;;;;23.10;50.20;;;;;;1623247;72;1177;-61
2021/07/15 08:03:57;;;;;;;;;;;23.00;50.10;;;;;;1624947;71;857;-61
2021/07/15 08:05:59;;;;;;;;;;;23.00;50.10;;;;;;1635707;71;780;-61
2021/07/15 08:08:01;;;;;;;;;;;23.00;50.10;;;;;;1629223;71;1945;-61
2021/07/15 08:10:04;;;;;;;;;;;23.00;50.10;;;;;;1621999;71;748;-61
2021/07/15 08:12:06;;;;;;;;;;;23.00;50.20;;;;;;1628575;71;1169;-61
2021/07/15 08:14:08;;;;;;;;;;;23.00;50.20;;;;;;1631317;71;749;-61
2021/07/15 08:16:10;;;;;;;;;;;23.00;50.20;;;;;;1623313;71;826;-61
2021/07/15 08:18:12;;;;;;;;;;;23.00;50.10;;;;;;1633111;72;653;-61
2021/07/15 08:20:13;;;;;;;;;;;23.00;50.10;;;;;;1640841;71;774;-61
2021/07/15 08:22:15;;;;;;;;;;;23.00;50.10;;;;;;1631027;72;1115;-62
2021/07/15 08:24:17;;;;;;;;;;;23.00;50.10;;;;;;1626258;71;765;-61
2021/07/15 08:26:19;;;;;;;;;;;23.00;50.20;;;;;;1627597;71;780;-61
2021/07/15 08:28:21;;;;;;;;;;;23.00;50.10;;;;;;1626566;71;1932;-61
2021/07/15 08:30:23;;;;;;;;;;;23.00;50.10;;;;;;1618716;71;732;-61
2021/07/15 08:32:25;;;;;;;;;;;23.00;50.20;;;;;;1630560;71;1133;-62
2021/07/15 08:34:27;;;;;;;;;;;23.00;50.10;;;;;;1621613;71;703;-61
2021/07/15 08:36:31;;;;;;;;;;;23.00;50.10;;;;;;1641338;71;725;-61
2021/07/15 08:38:33;;;;;;;;;;;23.00;50.20;;;;;;1629877;71;722;-61
2021/07/15 08:40:35;;;;;;;;;;;23.00;50.20;;;;;;1616895;72;686;-61
2021/07/15 08:42:37;;;;;;;;;;;23.00;50.10;;;;;;1632562;71;1129;-62
2021/07/15 08:44:39;;;;;;;;;;;23.00;50.10;;;;;;1650886;71;674;-61
2021/07/15 08:46:43;;;;;;;;;;;23.00;50.10;;;;;;1622761;71;781;-61
2021/07/15 08:48:46;;;;;;;;;;;23.00;50.20;;;;;;1637328;71;1904;-61
2021/07/15 08:50:50;;;;;;;;;;;23.00;50.20;;;;;;1633282;71;827;-61
2021/07/15 08:52:52;;;;;;;;;;;23.00;50.20;;;;;;1626164;71;1142;-62
2021/07/15 08:55:02;;;;;;;;;;;23.00;50.20;;;;;;1631301;71;696;-61
2021/07/15 08:57:03;;;;;;;;;;;23.00;50.20;;;;;;1621939;72;1711;-61
2021/07/15 08:59:06;;;;;;;;;;;23.00;50.20;;;;;;1640869;71;666;-61
2021/07/15 09:01:08;;;;;;;;;;;23.00;50.20;;;;;;1630054;71;685;-61
2021/07/15 09:03:10;;;;;;;;;;;23.00;50.20;;;;;;1621113;71;1120;-61
2021/07/15 09:05:13;;;;;;;;;;;23.00;50.20;;;;;;1642985;71;735;-61
2021/07/15 09:07:15;;;;;;;;;;;23.00;50.20;;;;;;1636114;71;861;-62
2021/07/15 09:09:17;;;;;;;;;;;23.00;50.20;;;;;;1619609;71;1930;-61
2021/07/15 09:11:18;;;;;;;;;;;23.00;50.20;;;;;;1643166;71;714;-61
2021/07/15 09:13:20;;;;;;;;;;;23.00;50.20;;;;;;1631526;72;1126;-61
2021/07/15 09:15:22;;;;;;;;;;;23.00;50.20;;;;;;1633478;71;736;-61
2021/07/15 09:17:28;;;;;;;;;;;23.00;50.20;;;;;;1598569;73;771;-61
2021/07/15 09:19:31;;;;;;;;;;;23.00;50.10;;;;;;1637382;71;695;-62
2021/07/15 09:21:33;;;;;;;;;;;23.00;50.20;;;;;;1624962;71;1162;-61
2021/07/15 09:23:35;;;;;;;;;;;23.00;50.20;;;;;;1621364;71;664;-61
2021/07/15 09:25:42;;;;;;;;;;;23.00;50.20;;;;;;1626714;71;710;-61
2021/07/15 09:27:45;;;;;;;;;;;23.00;50.20;;;;;;1633668;72;1928;-61
2021/07/15 09:29:49;;;;;;;;;;;23.00;50.20;;;;;;1643774;71;1614;-61
2021/07/15 09:31:57;;;;;;;;;;;23.00;50.20;;;;;;1635821;71;1887;-61
2021/07/15 09:33:59;;;;;;;;;;;23.00;50.20;;;;;;1616753;71;697;-61
2021/07/15 09:36:01;;;;;;;;;;;23.00;50.20;;;;;;1636242;71;648;-61
2021/07/15 09:38:15;;;;;;;;;;;23.00;50.20;;;;;;1622032;72;1210;-61
2021/07/15 09:40:17;;;;;;;;;;;23.00;50.20;;;;;;1617956;71;601;-61
2021/07/15 09:42:20;;;;;;;;;;;23.00;50.20;;;;;;1616579;71;1083;-61
2021/07/15 09:44:29;;;;;;;;;;;23.00;50.10;;;;;;1641374;71;622;-61
2021/07/15 09:46:31;;;;;;;;;;;23.00;50.10;;;;;;1618930;71;724;-61
2021/07/15 09:48:33;;;;;;;;;;;23.00;50.20;;;;;;1606917;73;1948;-61
2021/07/15 09:50:34;;;;;;;;;;;23.00;50.20;;;;;;1625386;71;784;-61
2021/07/15 09:52:36;;;;;;;;;;;23.00;50.20;;;;;;1621696;72;1166;-61
2021/07/15 09:54:38;;;;;;;;;;;23.00;50.20;;;;;;1632241;72;729;-61
2021/07/15 09:56:44;;;;;;;;;;;23.00;50.20;;;;;;1623469;71;746;-61
2021/07/15 09:58:46;;;;;;;;;;;23.00;50.20;;;;;;1617383;72;799;-61
2021/07/15 10:00:48;;;;;;;;;;;23.00;50.20;;;;;;1644351;71;770;-61
2021/07/15 10:02:52;;;;;;;;;;;23.00;50.20;;;;;;1638738;71;1167;-61
2021/07/15 10:04:54;;;;;;;;;;;23.00;50.20;;;;;;1632539;72;1824;-61
2021/07/15 10:06:57;;;;;;;;;;;23.00;50.10;;;;;;1633398;71;661;-60
2021/07/15 10:08:59;;;;;;;;;;;23.00;50.10;;;;;;1634200;71;1916;-61
2021/07/15 10:11:19;;;;;;;;;;;23.00;50.20;;;;;;1625189;71;726;-61
2021/07/15 10:13:24;;;;;;;;;;;23.00;50.10;;;;;;1643099;72;1054;-59
2021/07/15 10:15:26;;;;;;;;;;;23.00;50.10;;;;;;1623811;72;791;-59
2021/07/15 10:17:40;;;;;;;;;;;23.00;50.10;;;;;;1603948;72;1227;-59
2021/07/15 10:19:43;;;;;;;;;;;23.00;50.10;;;;;;1641320;71;768;-58
2021/07/15 10:21:45;;;;;;;;;;;23.00;50.20;;;;;;1643493;71;1166;-58
2021/07/15 10:23:49;;;;;;;;;;;23.00;50.20;;;;;;1627756;71;665;-59
2021/07/15 10:25:51;;;;;;;;;;;23.00;50.20;;;;;;1618272;72;771;-58
2021/07/15 10:27:53;;;;;;;;;;;23.00;50.20;;;;;;1618163;71;748;-59
2021/07/15 10:29:57;;;;;;;;;;;23.00;50.10;;;;;;1640527;71;1949;-58
2021/07/15 10:31:59;;;;;;;;;;;23.00;50.10;;;;;;1638597;71;1130;-58
2021/07/15 10:34:01;;;;;;;;;;;23.00;50.10;;;;;;1639339;71;749;-59
2021/07/15 10:36:04;;;;;;;;;;;23.00;50.20;;;;;;1620956;71;714;-59
2021/07/15 10:38:06;;;;;;;;;;;23.00;50.20;;;;;;1629137;72;772;-59
2021/07/15 10:40:08;;;;;;;;;;;23.00;50.10;;;;;;1632514;71;723;-59
2021/07/15 10:42:10;;;;;;;;;;;23.00;50.10;;;;;;1635237;71;1132;-59
2021/07/15 10:44:12;;;;;;;;;;;23.00;50.10;;;;;;1617631;71;704;-59
2021/07/15 10:46:15;;;;;;;;;;;23.00;50.10;;;;;;1634965;71;659;-59
2021/07/15 10:48:17;;;;;;;;;;;23.00;50.10;;;;;;1620021;71;1917;-59
2021/07/15 10:50:19;;;;;;;;;;;23.00;50.10;;;;;;1629771;71;956;-58
2021/07/15 10:52:21;;;;;;;;;;;23.00;50.20;;;;;;1642661;71;1096;-59
2021/07/15 10:54:23;;;;;;;;;;;23.00;50.10;;;;;;1617972;71;810;-59
2021/07/15 10:56:25;;;;;;;;;;;23.00;50.10;;;;;;1635672;72;759;-58
2021/07/15 10:58:43;;;;;;;;;;;23.00;50.10;;;;;;1642915;71;750;-59
2021/07/15 11:00:51;;;;;;;;;;;23.00;50.10;;;;;;1624076;72;723;-58
2021/07/15 11:02:57;;;;;;;;;;;23.00;50.10;;;;;;1630523;71;1131;-59
2021/07/15 11:05:00;;;;;;;;;;;23.00;50.20;;;;;;1610029;71;1877;-59
2021/07/15 11:07:04;;;;;;;;;;;23.00;50.10;;;;;;1616845;71;832;-58
2021/07/15 11:09:06;;;;;;;;;;;23.00;50.20;;;;;;1621190;71;1930;-58
2021/07/15 11:11:08;;;;;;;;;;;23.00;50.20;;;;;;1642293;72;766;-59
2021/07/15 11:13:10;;;;;;;;;;;23.00;50.20;;;;;;1638416;71;1132;-59
2021/07/15 11:15:12;;;;;;;;;;;23.00;50.20;;;;;;1616984;71;749;-59
2021/07/15 11:17:28;;;;;;;;;;;23.00;50.20;;;;;;1630964;72;753;-59
2021/07/15 11:19:48;;;;;;;;;;;23.00;50.20;;;;;;1642968;71;1779;-58
2021/07/15 11:21:51;;;;;;;;;;;23.00;50.20;;;;;;1616762;72;1143;-59
2021/07/15 11:23:53;;;;;;;;;;;23.00;50.20;;;;;;1623548;72;1934;-59
2021/07/15 11:25:55;;;;;;;;;;;23.00;50.20;;;;;;1644331;71;710;-59
2021/07/15 11:28:03;;;;;;;;;;;23.00;50.20;;;;;;1641901;71;769;-59
2021/07/15 11:30:06;;;;;;;;;;;23.00;50.10;;;;;;1620114;72;1922;-59
2021/07/15 11:32:10;;;;;;;;;;;23.00;50.20;;;;;;1618262;71;1122;-59
2021/07/15 11:34:12;;;;;;;;;;;23.00;50.10;;;;;;1638114;72;1894;-59
2021/07/15 11:36:15;;;;;;;;;;;23.00;50.20;;;;;;1642936;71;669;-59
2021/07/15 11:38:19;;;;;;;;;;;23.00;50.20;;;;;;1617021;72;1852;-58
2021/07/15 11:40:37;;;;;;;;;;;23.00;50.20;;;;;;1633725;72;1963;-59
2021/07/15 11:42:41;;;;;;;;;;;23.00;50.20;;;;;;1631751;71;1146;-59
2021/07/15 11:45:01;;;;;;;;;;;23.00;50.10;;;;;;1635125;71;1924;-59
2021/07/15 11:47:03;;;;;;;;;;;23.00;50.10;;;;;;1616909;71;678;-59
2021/07/15 11:49:17;;;;;;;;;;;23.00;50.20;;;;;;1644039;71;1926;-59
2021/07/15 11:51:25;;;;;;;;;;;23.00;50.20;;;;;;1629501;71;1600;-59
2021/07/15 11:53:27;;;;;;;;;;;23.00;50.20;;;;;;1635387;71;758;-59
2021/07/15 11:55:30;;;;;;;;;;;23.00;50.20;;;;;;1631295;71;705;-59
2021/07/15 11:57:34;;;;;;;;;;;23.00;50.20;;;;;;1641208;71;782;-58
2021/07/15 11:59:38;;;;;;;;;;;23.00;50.20;;;;;;1621861;72;709;-58
2021/07/15 12:01:40;;;;;;;;;;;23.00;50.20;;;;;;1645938;71;1151;-59
2021/07/15 12:03:43;;;;;;;;;;;23.00;50.20;;;;;;1644086;71;774;-59
2021/07/15 12:05:45;;;;;;;;;;;23.00;50.20;;;;;;1607128;71;1710;-59
2021/07/15 12:07:49;;;;;;;;;;;23.00;50.20;;;;;;1635805;71;715;-59
2021/07/15 12:09:51;;;;;;;;;;;23.00;50.20;;;;;;1617713;72;1917;-59
2021/07/15 12:11:53;;;;;;;;;;;23.00;50.20;;;;;;1634432;71;1136;-59
2021/07/15 12:13:55;;;;;;;;;;;23.00;50.20;;;;;;1623257;71;775;-59